createdAt,value
2018-11-20T00:00:31.321Z,1008.49
2018-11-20T00:02:31.233Z,1008.48
2018-11-20T00:03:31.263Z,1008.49
2018-11-20T00:04:31.602Z,1008.44
2018-11-20T00:05:31.377Z,1008.51
2018-11-20T00:06:31.415Z,1008.46
2018-11-20T00:07:31.391Z,1008.44
2018-11-20T00:08:31.472Z,1008.42
2018-11-20T00:09:31.451Z,1008.43
2018-11-20T00:10:31.547Z,1008.45
2018-11-20T00:11:31.813Z,1008.43
2018-11-20T00:12:31.595Z,1008.39
2018-11-20T00:13:31.572Z,1008.41
2018-11-20T00:14:31.607Z,1008.39
2018-11-20T00:15:31.637Z,1008.37
2018-11-20T00:16:31.718Z,1008.35
2018-11-20T00:17:31.751Z,1008.29
2018-11-20T00:18:32.029Z,1008.32
2018-11-20T00:19:31.814Z,1008.29
2018-11-20T00:20:31.843Z,1008.26
2018-11-20T00:21:31.819Z,1008.24
2018-11-20T00:22:31.858Z,1008.22
2018-11-20T00:23:31.893Z,1008.20
2018-11-20T00:24:31.966Z,1008.17
2018-11-20T00:26:32.331Z,1008.11
2018-11-20T00:27:32.163Z,1008.09
2018-11-20T00:28:32.040Z,1008.13
2018-11-20T00:29:32.073Z,1008.11
2018-11-20T00:30:32.151Z,1008.07
2018-11-20T00:31:32.189Z,1008.08
2018-11-20T00:32:32.217Z,1008.08
2018-11-20T00:33:32.498Z,1008.03
2018-11-20T00:34:32.227Z,1008.02
2018-11-20T00:35:32.330Z,1008.01
2018-11-20T00:36:32.347Z,1007.96
2018-11-20T00:37:32.321Z,1007.97
2018-11-20T00:38:32.400Z,1007.95
2018-11-20T00:39:32.433Z,1007.92
2018-11-20T00:40:32.764Z,1007.93
2018-11-20T00:41:32.491Z,1007.92
2018-11-20T00:42:32.760Z,1007.86
2018-11-20T00:43:32.564Z,1007.84
2018-11-20T00:44:32.536Z,1007.81
2018-11-20T00:45:32.619Z,1007.79
2018-11-20T00:46:32.598Z,1007.80
2018-11-20T00:47:32.930Z,1007.81
2018-11-20T00:48:32.712Z,1007.78
2018-11-20T00:49:32.690Z,1007.81
2018-11-20T00:50:32.773Z,1007.81
2018-11-20T00:51:32.758Z,1007.76
2018-11-20T00:52:32.836Z,1007.79
2018-11-20T00:53:32.874Z,1007.73
2018-11-20T00:54:33.711Z,1007.69
2018-11-20T00:55:32.938Z,1007.71
2018-11-20T00:57:32.999Z,1007.76
2018-11-20T00:58:32.974Z,1007.72
2018-11-20T01:00:33.339Z,1007.65
2018-11-20T01:01:33.113Z,1007.62
2018-11-20T01:02:33.102Z,1007.60
2018-11-20T01:03:33.129Z,1007.59
2018-11-20T01:04:33.213Z,1007.54
2018-11-20T01:05:33.317Z,1007.56
2018-11-20T01:06:33.518Z,1007.56
2018-11-20T01:07:33.252Z,1007.53
2018-11-20T01:08:33.331Z,1007.53
2018-11-20T01:09:33.314Z,1007.52
2018-11-20T01:10:33.345Z,1007.48
2018-11-20T01:11:33.427Z,1007.51
2018-11-20T01:12:33.710Z,1007.43
2018-11-20T01:13:33.436Z,1007.52
2018-11-20T01:14:33.520Z,1007.49
2018-11-20T01:15:33.551Z,1007.49
2018-11-20T01:16:33.586Z,1007.46
2018-11-20T01:17:33.611Z,1007.44
2018-11-20T01:18:33.643Z,1007.44
2018-11-20T01:19:33.935Z,1007.43
2018-11-20T01:20:33.703Z,1007.41
2018-11-20T01:21:33.732Z,1007.41
2018-11-20T01:22:33.714Z,1007.45
2018-11-20T01:23:33.749Z,1007.44
2018-11-20T01:24:33.831Z,1007.38
2018-11-20T01:25:33.808Z,1007.44
2018-11-20T01:26:34.139Z,1007.47
2018-11-20T01:27:33.875Z,1007.39
2018-11-20T01:29:33.989Z,1007.34
2018-11-20T01:30:33.966Z,1007.36
2018-11-20T01:31:34.047Z,1007.33
2018-11-20T01:32:34.026Z,1007.31
2018-11-20T01:33:34.415Z,1007.31
2018-11-20T01:34:34.088Z,1007.27
2018-11-20T01:35:34.168Z,1007.29
2018-11-20T01:36:34.204Z,1007.20
2018-11-20T01:37:34.229Z,1007.20
2018-11-20T01:38:34.259Z,1007.16
2018-11-20T01:39:34.241Z,1007.21
2018-11-20T01:41:34.638Z,1007.18
2018-11-20T01:42:34.335Z,1007.16
2018-11-20T01:43:34.417Z,1007.11
2018-11-20T01:45:34.428Z,1007.16
2018-11-20T01:46:34.458Z,1007.15
2018-11-20T01:47:34.544Z,1007.15
2018-11-20T01:48:34.822Z,1007.14
2018-11-20T01:49:34.550Z,1007.10
2018-11-20T01:50:34.633Z,1007.18
2018-11-20T01:51:34.687Z,1007.13
2018-11-20T01:52:34.695Z,1007.14
2018-11-20T01:53:34.727Z,1007.10
2018-11-20T01:54:34.708Z,1007.16
2018-11-20T01:55:35.041Z,1007.12
2018-11-20T01:56:34.820Z,1007.17
2018-11-20T01:57:34.801Z,1007.10
2018-11-20T01:58:34.891Z,1007.13
2018-11-20T01:59:34.887Z,1007.10
2018-11-20T02:00:34.942Z,1007.08
2018-11-20T02:01:35.276Z,1007.10
2018-11-20T02:02:35.255Z,1007.08
2018-11-20T02:03:34.984Z,1007.00
2018-11-20T02:04:35.078Z,1007.04
2018-11-20T02:05:35.101Z,1006.99
2018-11-20T02:06:35.078Z,1007.04
2018-11-20T02:07:35.112Z,1007.00
2018-11-20T02:08:35.160Z,1007.04
2018-11-20T02:09:35.485Z,1007.02
2018-11-20T02:10:35.216Z,1007.01
2018-11-20T02:11:35.285Z,1007.07
2018-11-20T02:12:35.306Z,1007.03
2018-11-20T02:13:35.354Z,1007.02
2018-11-20T02:14:35.341Z,1007.04
2018-11-20T02:15:35.421Z,1007.00
2018-11-20T02:16:35.701Z,1006.97
2018-11-20T02:17:35.437Z,1007.00
2018-11-20T02:18:35.499Z,1006.97
2018-11-20T02:19:35.531Z,1006.94
2018-11-20T02:20:35.564Z,1006.98
2018-11-20T02:21:35.548Z,1006.96
2018-11-20T02:22:35.588Z,1006.92
2018-11-20T02:23:36.008Z,1006.93
2018-11-20T02:25:35.717Z,1006.85
2018-11-20T02:26:35.704Z,1006.89
2018-11-20T02:27:35.730Z,1006.81
2018-11-20T02:28:35.813Z,1006.82
2018-11-20T02:29:35.840Z,1006.83
2018-11-20T02:30:36.224Z,1006.81
2018-11-20T02:31:35.904Z,1006.82
2018-11-20T02:32:35.944Z,1006.83
2018-11-20T02:33:35.965Z,1006.81
2018-11-20T02:34:35.947Z,1006.85
2018-11-20T02:35:36.026Z,1006.80
2018-11-20T02:36:36.077Z,1006.76
2018-11-20T02:37:36.340Z,1006.74
2018-11-20T02:38:36.124Z,1006.73
2018-11-20T02:39:36.101Z,1006.76
2018-11-20T02:40:36.216Z,1006.74
2018-11-20T02:41:36.161Z,1006.69
2018-11-20T02:42:36.231Z,1006.73
2018-11-20T02:43:36.227Z,1006.69
2018-11-20T02:44:36.563Z,1006.64
2018-11-20T02:45:36.289Z,1006.65
2018-11-20T02:46:36.367Z,1006.61
2018-11-20T02:47:36.420Z,1006.66
2018-11-20T02:48:36.444Z,1006.63
2018-11-20T02:49:36.420Z,1006.62
2018-11-20T02:50:36.455Z,1006.64
2018-11-20T02:51:36.960Z,1006.61
2018-11-20T02:52:36.502Z,1006.58
2018-11-20T02:53:36.593Z,1006.59
2018-11-20T02:54:36.583Z,1006.60
2018-11-20T02:55:36.712Z,1006.63
2018-11-20T02:56:36.679Z,1006.64
2018-11-20T02:57:36.662Z,1006.67
2018-11-20T02:59:37.023Z,1006.59
2018-11-20T03:00:36.801Z,1006.56
2018-11-20T03:01:36.794Z,1006.53
2018-11-20T03:02:36.867Z,1006.55
2018-11-20T03:03:36.960Z,1006.49
2018-11-20T03:05:36.958Z,1006.50
2018-11-20T03:06:37.237Z,1006.51
2018-11-20T03:07:36.968Z,1006.46
2018-11-20T03:08:37.048Z,1006.49
2018-11-20T03:10:37.111Z,1006.44
2018-11-20T03:11:37.095Z,1006.44
2018-11-20T03:12:37.177Z,1006.48
2018-11-20T03:13:37.453Z,1006.53
2018-11-20T03:14:37.243Z,1006.51
2018-11-20T03:15:37.265Z,1006.47
2018-11-20T03:16:37.250Z,1006.50
2018-11-20T03:17:37.330Z,1006.47
2018-11-20T03:18:37.357Z,1006.54
2018-11-20T03:19:37.340Z,1006.51
2018-11-20T03:20:37.836Z,1006.46
2018-11-20T03:21:37.471Z,1006.50
2018-11-20T03:22:37.494Z,1006.54
2018-11-20T03:23:37.521Z,1006.54
2018-11-20T03:24:37.554Z,1006.50
2018-11-20T03:25:37.524Z,1006.50
2018-11-20T03:26:37.563Z,1006.48
2018-11-20T03:27:37.889Z,1006.48
2018-11-20T03:28:37.684Z,1006.52
2018-11-20T03:29:37.655Z,1006.40
2018-11-20T03:30:37.736Z,1006.42
2018-11-20T03:31:37.711Z,1006.39
2018-11-20T03:32:37.742Z,1006.43
2018-11-20T03:33:37.839Z,1006.34
2018-11-20T03:34:38.113Z,1006.34
2018-11-20T03:35:37.850Z,1006.31
2018-11-20T03:36:37.916Z,1006.34
2018-11-20T03:37:37.893Z,1006.30
2018-11-20T03:38:37.982Z,1006.28
2018-11-20T03:39:37.959Z,1006.26
2018-11-20T03:40:38.037Z,1006.22
2018-11-20T03:41:38.439Z,1006.19
2018-11-20T03:42:38.106Z,1006.15
2018-11-20T03:43:38.130Z,1006.16
2018-11-20T03:44:38.133Z,1006.12
2018-11-20T03:45:38.145Z,1006.15
2018-11-20T03:46:38.228Z,1006.14
2018-11-20T03:47:38.536Z,1006.10
2018-11-20T03:48:38.286Z,1006.15
2018-11-20T03:49:38.278Z,1006.14
2018-11-20T03:50:38.321Z,1006.15
2018-11-20T03:51:38.337Z,1006.12
2018-11-20T03:52:38.413Z,1006.08
2018-11-20T03:53:38.692Z,1006.06
2018-11-20T03:54:38.502Z,1006.09
2018-11-20T03:55:38.452Z,1006.07
2018-11-20T03:56:38.532Z,1006.01
2018-11-20T03:57:38.568Z,1006.02
2018-11-20T03:58:38.598Z,1006.01
2018-11-20T03:59:38.953Z,1006.00
2018-11-20T04:00:38.660Z,1006.00
2018-11-20T04:01:38.693Z,1006.03
2018-11-20T04:04:38.787Z,1005.95
2018-11-20T04:05:38.780Z,1005.94
2018-11-20T04:06:39.098Z,1005.95
2018-11-20T04:07:38.833Z,1005.96
2018-11-20T04:08:38.905Z,1005.95
2018-11-20T04:09:38.943Z,1005.92
2018-11-20T04:10:38.931Z,1005.90
2018-11-20T04:11:38.952Z,1005.87
2018-11-20T04:12:38.992Z,1005.95
2018-11-20T04:13:39.359Z,1005.88
2018-11-20T04:14:39.057Z,1005.93
2018-11-20T04:15:39.122Z,1005.91
2018-11-20T04:16:39.326Z,1005.87
2018-11-20T04:17:39.151Z,1005.86
2018-11-20T04:18:39.220Z,1005.88
2018-11-20T04:20:39.278Z,1005.86
2018-11-20T04:21:39.571Z,1005.91
2018-11-20T04:22:39.338Z,1005.84
2018-11-20T04:23:39.373Z,1005.88
2018-11-20T04:24:39.403Z,1005.86
2018-11-20T04:25:39.430Z,1005.90
2018-11-20T04:26:39.465Z,1005.94
2018-11-20T04:28:39.475Z,1005.84
2018-11-20T04:29:39.860Z,1005.85
2018-11-20T04:30:39.601Z,1005.88
2018-11-20T04:31:39.573Z,1005.81
2018-11-20T04:32:39.665Z,1005.79
2018-11-20T04:33:39.638Z,1005.86
2018-11-20T04:34:39.711Z,1005.84
2018-11-20T04:35:40.071Z,1005.81
2018-11-20T04:36:39.772Z,1005.81
2018-11-20T04:37:39.751Z,1005.80
2018-11-20T04:39:39.828Z,1005.72
2018-11-20T04:40:39.906Z,1005.80
2018-11-20T04:41:39.948Z,1005.76
2018-11-20T04:42:40.210Z,1005.79
2018-11-20T04:43:40.053Z,1005.73
2018-11-20T04:44:40.040Z,1005.75
2018-11-20T04:45:40.011Z,1005.74
2018-11-20T04:46:40.083Z,1005.72
2018-11-20T04:47:40.164Z,1005.65
2018-11-20T04:48:40.154Z,1005.67
2018-11-20T04:49:40.485Z,1005.70
2018-11-20T04:50:40.164Z,1005.68
2018-11-20T04:51:40.209Z,1005.68
2018-11-20T04:52:40.377Z,1005.67
2018-11-20T04:53:40.297Z,1005.67
2018-11-20T04:54:40.332Z,1005.60
2018-11-20T04:55:40.378Z,1005.60
2018-11-20T04:56:40.660Z,1005.65
2018-11-20T04:57:40.423Z,1005.64
2018-11-20T04:58:40.464Z,1005.62
2018-11-20T04:59:40.434Z,1005.64
2018-11-20T05:00:40.517Z,1005.64
2018-11-20T05:01:40.500Z,1005.63
2018-11-20T05:02:40.533Z,1005.65
2018-11-20T05:03:40.857Z,1005.69
2018-11-20T05:04:40.639Z,1005.64
2018-11-20T05:05:40.669Z,1005.66
2018-11-20T05:06:40.785Z,1005.68
2018-11-20T05:07:40.784Z,1005.69
2018-11-20T05:08:40.767Z,1005.65
2018-11-20T05:09:40.811Z,1005.67
2018-11-20T05:10:41.077Z,1005.68
2018-11-20T05:11:40.813Z,1005.69
2018-11-20T05:12:40.871Z,1005.73
2018-11-20T05:13:40.919Z,1005.65
2018-11-20T05:14:40.896Z,1005.63
2018-11-20T05:15:40.994Z,1005.64
2018-11-20T05:16:41.010Z,1005.67
2018-11-20T05:17:41.339Z,1005.75
2018-11-20T05:18:41.020Z,1005.64
2018-11-20T05:19:41.052Z,1005.69
2018-11-20T05:20:41.137Z,1005.66
2018-11-20T05:21:41.163Z,1005.61
2018-11-20T05:22:41.162Z,1005.68
2018-11-20T05:23:41.229Z,1005.68
2018-11-20T05:24:41.507Z,1005.68
2018-11-20T05:25:41.245Z,1005.65
2018-11-20T05:26:41.270Z,1005.61
2018-11-20T05:27:41.381Z,1005.62
2018-11-20T05:28:41.382Z,1005.60
2018-11-20T05:29:41.412Z,1005.55
2018-11-20T05:30:41.444Z,1005.53
2018-11-20T05:31:41.731Z,1005.53
2018-11-20T05:32:41.507Z,1005.52
2018-11-20T05:33:41.540Z,1005.54
2018-11-20T05:34:41.518Z,1005.47
2018-11-20T05:35:41.550Z,1005.45
2018-11-20T05:36:41.629Z,1005.45
2018-11-20T05:37:41.612Z,1005.44
2018-11-20T05:38:41.992Z,1005.42
2018-11-20T05:39:41.721Z,1005.43
2018-11-20T05:40:41.753Z,1005.40
2018-11-20T05:41:41.791Z,1005.40
2018-11-20T05:42:41.817Z,1005.41
2018-11-20T05:43:41.855Z,1005.37
2018-11-20T05:44:41.888Z,1005.40
2018-11-20T05:45:42.169Z,1005.34
2018-11-20T05:47:41.969Z,1005.36
2018-11-20T05:48:41.962Z,1005.36
2018-11-20T05:49:41.982Z,1005.34
2018-11-20T05:50:42.172Z,1005.34
2018-11-20T05:51:42.098Z,1005.33
2018-11-20T05:52:42.428Z,1005.27
2018-11-20T05:53:42.103Z,1005.29
2018-11-20T05:54:42.152Z,1005.26
2018-11-20T05:55:42.216Z,1005.24
2018-11-20T05:56:42.294Z,1005.23
2018-11-20T05:57:42.332Z,1005.15
2018-11-20T05:58:42.558Z,1005.14
2018-11-20T05:59:42.291Z,1005.21
2018-11-20T06:00:42.375Z,1005.22
2018-11-20T06:01:42.407Z,1005.21
2018-11-20T06:02:42.437Z,1005.18
2018-11-20T06:03:42.417Z,1005.20
2018-11-20T06:04:42.805Z,1005.23
2018-11-20T06:06:42.561Z,1005.25
2018-11-20T06:07:42.591Z,1005.20
2018-11-20T06:08:42.628Z,1005.21
2018-11-20T06:09:42.673Z,1005.20
2018-11-20T06:10:42.631Z,1005.20
2018-11-20T06:11:42.676Z,1005.22
2018-11-20T06:12:42.777Z,1005.14
2018-11-20T06:14:42.804Z,1005.18
2018-11-20T06:15:42.786Z,1005.14
2018-11-20T06:16:43.178Z,1005.18
2018-11-20T06:17:42.858Z,1005.17
2018-11-20T06:18:42.938Z,1005.21
2018-11-20T06:19:42.969Z,1005.19
2018-11-20T06:20:42.994Z,1005.19
2018-11-20T06:21:42.979Z,1005.17
2018-11-20T06:22:43.010Z,1005.17
2018-11-20T06:24:43.420Z,1005.15
2018-11-20T06:25:43.143Z,1005.12
2018-11-20T06:26:43.148Z,1005.17
2018-11-20T06:27:43.162Z,1005.09
2018-11-20T06:28:43.269Z,1005.16
2018-11-20T06:29:43.292Z,1005.14
2018-11-20T06:30:43.431Z,1005.17
2018-11-20T06:31:43.584Z,1005.24
2018-11-20T06:32:43.434Z,1005.19
2018-11-20T06:33:43.341Z,1005.18
2018-11-20T06:34:43.525Z,1005.24
2018-11-20T06:35:43.455Z,1005.16
2018-11-20T06:36:43.510Z,1005.21
2018-11-20T06:37:43.474Z,1005.25
2018-11-20T06:38:43.806Z,1005.20
2018-11-20T06:40:43.628Z,1005.10
2018-11-20T06:41:43.642Z,1005.14
2018-11-20T06:42:43.621Z,1005.14
2018-11-20T06:43:43.661Z,1005.14
2018-11-20T06:45:43.768Z,1005.10
2018-11-20T06:47:44.079Z,1005.06
2018-11-20T06:48:43.860Z,1005.10
2018-11-20T06:49:43.890Z,1005.07
2018-11-20T06:50:43.879Z,1005.08
2018-11-20T06:51:44.003Z,1005.08
2018-11-20T06:52:44.050Z,1005.10
2018-11-20T06:53:44.367Z,1005.13
2018-11-20T06:54:44.046Z,1005.14
2018-11-20T06:55:44.102Z,1005.14
2018-11-20T06:56:44.107Z,1005.18
2018-11-20T06:57:44.092Z,1005.13
2018-11-20T06:59:44.216Z,1005.17
2018-11-20T07:00:44.530Z,1005.13
2018-11-20T07:01:44.222Z,1005.16
2018-11-20T07:02:44.243Z,1005.15
2018-11-20T07:03:44.324Z,1005.14
2018-11-20T07:04:44.376Z,1005.14
2018-11-20T07:05:44.331Z,1005.10
2018-11-20T07:06:44.367Z,1005.12
2018-11-20T07:07:44.943Z,1005.11
2018-11-20T07:08:44.503Z,1005.17
2018-11-20T07:09:44.508Z,1005.16
2018-11-20T07:10:44.493Z,1005.10
2018-11-20T07:11:44.646Z,1005.14
2018-11-20T07:13:44.632Z,1005.11
2018-11-20T07:14:44.927Z,1005.14
2018-11-20T07:15:44.892Z,1005.15
2018-11-20T07:16:44.723Z,1005.11
2018-11-20T07:17:44.703Z,1005.13
2018-11-20T07:19:44.824Z,1005.14
2018-11-20T07:20:44.850Z,1005.17
2018-11-20T07:21:45.131Z,1005.16
2018-11-20T07:22:44.946Z,1005.13
2018-11-20T07:23:44.942Z,1005.10
2018-11-20T07:24:45.022Z,1005.09
2018-11-20T07:25:44.952Z,1005.08
2018-11-20T07:26:44.999Z,1005.08
2018-11-20T07:27:45.021Z,1005.09
2018-11-20T07:28:45.117Z,1005.12
2018-11-20T07:29:45.209Z,1005.14
2018-11-20T07:30:45.178Z,1005.10
2018-11-20T07:32:45.219Z,1005.07
2018-11-20T07:34:45.312Z,1005.13
2018-11-20T07:35:45.564Z,1005.05
2018-11-20T07:37:45.329Z,1005.11
2018-11-20T07:38:45.357Z,1005.07
2018-11-20T07:40:45.468Z,1005.05
2018-11-20T07:42:45.531Z,1005.06
2018-11-20T07:43:45.931Z,1005.02
2018-11-20T07:44:45.543Z,1005.05
2018-11-20T07:45:45.632Z,1005.08
2018-11-20T07:46:45.652Z,1005.08
2018-11-20T07:47:45.636Z,1005.07
2018-11-20T07:48:45.741Z,1005.03
2018-11-20T07:50:46.082Z,1005.06
2018-11-20T07:51:45.763Z,1005.04
2018-11-20T07:52:45.844Z,1004.98
2018-11-20T07:53:45.872Z,1005.02
2018-11-20T07:55:45.944Z,1005.00
2018-11-20T07:57:45.944Z,1004.94
2018-11-20T07:58:46.277Z,1004.91
2018-11-20T07:59:46.010Z,1004.86
2018-11-20T08:00:46.087Z,1004.87
2018-11-20T08:01:46.119Z,1004.84
2018-11-20T08:02:46.102Z,1004.86
2018-11-20T08:03:46.181Z,1004.83
2018-11-20T08:04:46.162Z,1004.87
2018-11-20T08:05:46.243Z,1004.85
2018-11-20T08:06:46.225Z,1004.86
2018-11-20T08:07:46.253Z,1004.85
2018-11-20T08:08:46.333Z,1004.87
2018-11-20T08:09:46.432Z,1004.89
2018-11-20T08:10:46.394Z,1004.92
2018-11-20T08:11:46.679Z,1004.94
2018-11-20T08:12:46.457Z,1004.88
2018-11-20T08:13:46.441Z,1004.89
2018-11-20T08:14:46.522Z,1004.88
2018-11-20T08:15:46.595Z,1004.88
2018-11-20T08:16:46.584Z,1004.89
2018-11-20T08:17:46.663Z,1004.92
2018-11-20T08:21:46.737Z,1004.92
2018-11-20T08:22:46.721Z,1004.89
2018-11-20T08:23:46.802Z,1004.91
2018-11-20T08:24:47.080Z,1004.87
2018-11-20T08:25:46.888Z,1004.88
2018-11-20T08:27:46.943Z,1004.93
2018-11-20T08:28:47.039Z,1004.86
2018-11-20T08:29:47.054Z,1004.85
2018-11-20T08:30:47.036Z,1004.85
2018-11-20T08:32:47.134Z,1004.83
2018-11-20T08:33:47.197Z,1004.82
2018-11-20T08:34:47.090Z,1004.84
2018-11-20T08:35:47.171Z,1004.82
2018-11-20T08:36:47.505Z,1004.80
2018-11-20T08:37:47.236Z,1004.83
2018-11-20T08:38:47.218Z,1004.82
2018-11-20T08:39:47.244Z,1004.79
2018-11-20T08:40:47.327Z,1004.83
2018-11-20T08:41:47.307Z,1004.81
2018-11-20T08:43:47.721Z,1004.84
2018-11-20T08:45:47.489Z,1004.83
2018-11-20T08:46:47.517Z,1004.82
2018-11-20T08:47:47.582Z,1004.77
2018-11-20T08:48:47.580Z,1004.79
2018-11-20T08:49:47.572Z,1004.84
2018-11-20T08:50:47.588Z,1004.85
2018-11-20T08:51:47.671Z,1004.87
2018-11-20T08:52:47.685Z,1004.85
2018-11-20T08:53:47.830Z,1004.86
2018-11-20T08:57:47.866Z,1004.84
2018-11-20T08:58:48.145Z,1004.78
2018-11-20T08:59:47.871Z,1004.83
2018-11-20T09:03:48.048Z,1004.86
2018-11-20T09:05:48.405Z,1004.81
2018-11-20T09:08:48.199Z,1004.81
2018-11-20T09:09:48.203Z,1004.83
2018-11-20T09:10:48.260Z,1004.81
2018-11-20T09:11:48.546Z,1004.81
2018-11-20T09:12:48.322Z,1004.82
2018-11-20T09:15:48.419Z,1004.83
2018-11-20T09:22:48.641Z,1004.73
2018-11-20T09:26:48.714Z,1004.71
2018-11-20T09:27:48.905Z,1004.68
2018-11-20T09:28:48.832Z,1004.70
2018-11-20T09:31:48.872Z,1004.64
2018-11-20T09:32:48.948Z,1004.66
2018-11-20T09:33:49.169Z,1004.68
2018-11-20T09:34:49.042Z,1004.71
2018-11-20T09:35:49.289Z,1004.66
2018-11-20T09:36:49.023Z,1004.65
2018-11-20T09:38:49.141Z,1004.64
2018-11-20T09:39:49.179Z,1004.67
2018-11-20T09:41:49.182Z,1004.73
2018-11-20T09:42:49.213Z,1004.71
2018-11-20T09:44:49.342Z,1004.68
2018-11-20T09:46:49.441Z,1004.64
2018-11-20T09:47:49.371Z,1004.69
2018-11-20T09:49:49.779Z,1004.66
2018-11-20T09:50:49.458Z,1004.66
2018-11-20T09:51:49.494Z,1004.68
2018-11-20T09:52:49.851Z,1004.70
2018-11-20T09:53:49.562Z,1004.66
2018-11-20T09:54:49.634Z,1004.62
2018-11-20T09:55:49.918Z,1004.66
2018-11-20T09:56:49.694Z,1004.61
2018-11-20T09:58:49.708Z,1004.57
2018-11-20T09:59:49.798Z,1004.58
2018-11-20T10:01:49.863Z,1004.59
2018-11-20T10:02:50.139Z,1004.58
2018-11-20T10:04:49.948Z,1004.56
2018-11-20T10:06:50.060Z,1004.55
2018-11-20T10:07:50.041Z,1004.55
2018-11-20T10:08:50.085Z,1004.57
2018-11-20T10:09:50.102Z,1004.55
2018-11-20T10:10:50.133Z,1004.60
2018-11-20T10:11:50.164Z,1004.56
2018-11-20T10:12:50.200Z,1004.59
2018-11-20T10:14:50.499Z,1004.53
2018-11-20T10:15:50.237Z,1004.58
2018-11-20T10:16:50.328Z,1004.48
2018-11-20T10:17:50.305Z,1004.54
2018-11-20T10:18:50.332Z,1004.53
2018-11-20T10:19:50.419Z,1004.53
2018-11-20T10:21:50.438Z,1004.47
2018-11-20T10:22:50.507Z,1004.52
2018-11-20T10:23:50.650Z,1004.43
2018-11-20T10:24:50.678Z,1004.42
2018-11-20T10:25:50.757Z,1004.43
2018-11-20T10:26:50.589Z,1004.43
2018-11-20T10:27:50.665Z,1004.47
2018-11-20T10:29:51.132Z,1004.40
2018-11-20T10:30:50.710Z,1004.33
2018-11-20T10:33:50.809Z,1004.30
2018-11-20T10:34:50.930Z,1004.36
2018-11-20T10:35:50.914Z,1004.30
2018-11-20T10:36:51.255Z,1004.31
2018-11-20T10:37:50.979Z,1004.29
2018-11-20T10:39:50.991Z,1004.28
2018-11-20T10:41:51.058Z,1004.17
2018-11-20T10:42:51.143Z,1004.21
2018-11-20T10:43:51.170Z,1004.23
2018-11-20T10:44:51.202Z,1004.16
2018-11-20T10:45:51.185Z,1004.20
2018-11-20T10:46:51.262Z,1004.20
2018-11-20T10:47:51.293Z,1004.18
2018-11-20T10:50:51.337Z,1004.12
2018-11-20T10:51:51.366Z,1004.12
2018-11-20T10:53:51.444Z,1004.08
2018-11-20T10:56:51.575Z,1004.02
2018-11-20T10:57:51.919Z,1004.00
2018-11-20T10:59:51.681Z,1003.96
2018-11-20T11:01:51.731Z,1003.95
2018-11-20T11:02:51.742Z,1003.99
2018-11-20T11:03:51.793Z,1004.00
2018-11-20T11:04:51.874Z,1003.97
2018-11-20T11:05:51.811Z,1003.99
2018-11-20T11:07:52.108Z,1003.94
2018-11-20T11:08:51.972Z,1003.95
2018-11-20T11:10:52.023Z,1003.90
2018-11-20T11:11:52.008Z,1003.91
2018-11-20T11:12:52.093Z,1003.88
2018-11-20T11:14:52.155Z,1003.87
2018-11-20T11:15:52.480Z,1003.83
2018-11-20T11:16:52.211Z,1003.82
2018-11-20T11:17:52.185Z,1003.81
2018-11-20T11:18:52.221Z,1003.78
2018-11-20T11:20:52.463Z,1003.82
2018-11-20T11:21:52.361Z,1003.77
2018-11-20T11:22:52.698Z,1003.75
2018-11-20T11:23:52.426Z,1003.75
2018-11-20T11:24:52.407Z,1003.73
2018-11-20T11:25:52.539Z,1003.73
2018-11-20T11:26:52.473Z,1003.74
2018-11-20T11:27:52.512Z,1003.75
2018-11-20T11:29:52.578Z,1003.72
2018-11-20T11:30:52.949Z,1003.73
2018-11-20T11:31:52.637Z,1003.76
2018-11-20T11:32:52.722Z,1003.76
2018-11-20T11:33:52.688Z,1003.72
2018-11-20T11:34:52.724Z,1003.70
2018-11-20T11:35:52.816Z,1003.72
2018-11-20T11:36:53.138Z,1003.69
2018-11-20T11:37:52.978Z,1003.72
2018-11-20T11:38:52.849Z,1003.70
2018-11-20T11:39:52.896Z,1003.72
2018-11-20T11:40:52.924Z,1003.71
2018-11-20T11:41:52.997Z,1003.72
2018-11-20T11:42:53.013Z,1003.71
2018-11-20T11:43:53.314Z,1003.71
2018-11-20T11:44:53.133Z,1003.68
2018-11-20T11:45:53.119Z,1003.70
2018-11-20T11:46:53.187Z,1003.69
2018-11-20T11:47:53.195Z,1003.67
2018-11-20T11:48:53.167Z,1003.66
2018-11-20T11:50:53.277Z,1003.69
2018-11-20T11:51:53.547Z,1003.67
2018-11-20T11:52:53.360Z,1003.64
2018-11-20T11:53:53.382Z,1003.70
2018-11-20T11:54:53.474Z,1003.66
2018-11-20T11:55:53.392Z,1003.72
2018-11-20T11:56:53.469Z,1003.67
2018-11-20T11:57:53.770Z,1003.69
2018-11-20T11:58:53.486Z,1003.66
2018-11-20T11:59:53.570Z,1003.61
2018-11-20T12:00:53.757Z,1003.58
2018-11-20T12:03:53.657Z,1003.62
2018-11-20T12:04:54.014Z,1003.57
2018-11-20T12:05:55.917Z,1003.56
2018-11-20T12:06:53.841Z,1003.57
2018-11-20T12:07:53.775Z,1003.57
2018-11-20T12:08:53.858Z,1003.52
2018-11-20T12:09:53.884Z,1003.56
2018-11-20T12:10:53.871Z,1003.57
2018-11-20T12:11:54.192Z,1003.52
2018-11-20T12:12:53.990Z,1003.53
2018-11-20T12:13:54.014Z,1003.54
2018-11-20T12:14:54.066Z,1003.50
2018-11-20T12:15:54.028Z,1003.49
2018-11-20T12:16:54.105Z,1003.45
2018-11-20T12:17:54.153Z,1003.45
2018-11-20T12:18:56.120Z,1003.48
2018-11-20T12:19:54.149Z,1003.43
2018-11-20T12:21:54.341Z,1003.43
2018-11-20T12:22:54.304Z,1003.43
2018-11-20T12:24:54.361Z,1003.41
2018-11-20T12:25:54.692Z,1003.40
2018-11-20T12:26:54.367Z,1003.45
2018-11-20T12:28:55.847Z,1003.37
2018-11-20T12:29:55.521Z,1003.41
2018-11-20T12:30:54.548Z,1003.41
2018-11-20T12:31:54.539Z,1003.38
2018-11-20T12:32:54.863Z,1003.39
2018-11-20T12:33:54.594Z,1003.36
2018-11-20T12:34:56.717Z,1003.36
2018-11-20T12:36:54.690Z,1003.31
2018-11-20T12:37:54.766Z,1003.37
2018-11-20T12:38:54.755Z,1003.38
2018-11-20T12:39:56.418Z,1003.37
2018-11-20T12:40:54.874Z,1003.41
2018-11-20T12:41:54.844Z,1003.43
2018-11-20T12:42:54.936Z,1003.46
2018-11-20T12:43:56.771Z,1003.48
2018-11-20T12:44:56.675Z,1003.47
2018-11-20T12:46:55.055Z,1003.46
2018-11-20T12:47:55.094Z,1003.48
2018-11-20T12:48:56.297Z,1003.47
2018-11-20T12:49:55.097Z,1003.49
2018-11-20T12:50:55.182Z,1003.47
2018-11-20T12:51:55.168Z,1003.45
2018-11-20T12:52:55.206Z,1003.45
2018-11-20T12:53:57.794Z,1003.47
2018-11-20T12:54:55.310Z,1003.47
2018-11-20T12:55:55.294Z,1003.45
2018-11-20T12:56:55.382Z,1003.51
2018-11-20T12:57:55.358Z,1003.46
2018-11-20T12:58:55.460Z,1003.52
2018-11-20T12:59:55.715Z,1003.47
2018-11-20T13:00:55.530Z,1003.49
2018-11-20T13:01:55.589Z,1003.49
2018-11-20T13:02:55.566Z,1003.46
2018-11-20T13:04:55.622Z,1003.45
2018-11-20T13:05:55.915Z,1003.41
2018-11-20T13:06:55.693Z,1003.39
2018-11-20T13:07:55.672Z,1003.43
2018-11-20T13:08:55.751Z,1003.38
2018-11-20T13:09:55.732Z,1003.36
2018-11-20T13:10:55.779Z,1003.33
2018-11-20T13:11:56.147Z,1003.35
2018-11-20T13:12:56.534Z,1003.31
2018-11-20T13:13:56.567Z,1003.30
2018-11-20T13:14:56.605Z,1003.29
2018-11-20T13:15:56.610Z,1003.30
2018-11-20T13:16:56.004Z,1003.30
2018-11-20T13:17:56.031Z,1003.34
2018-11-20T13:18:56.365Z,1003.31
2018-11-20T13:19:56.093Z,1003.29
2018-11-20T13:20:56.128Z,1003.28
2018-11-20T13:21:56.108Z,1003.27
2018-11-20T13:22:56.189Z,1003.27
2018-11-20T13:23:56.172Z,1003.26
2018-11-20T13:24:58.010Z,1003.26
2018-11-20T13:25:56.315Z,1003.29
2018-11-20T13:26:56.307Z,1003.30
2018-11-20T13:28:56.385Z,1003.33
2018-11-20T13:29:56.418Z,1003.33
2018-11-20T13:30:56.392Z,1003.36
2018-11-20T13:31:56.724Z,1003.37
2018-11-20T13:32:56.518Z,1003.34
2018-11-20T13:33:57.904Z,1003.31
2018-11-20T13:34:57.692Z,1003.31
2018-11-20T13:35:56.554Z,1003.30
2018-11-20T13:36:56.583Z,1003.28
2018-11-20T13:37:56.664Z,1003.28
2018-11-20T13:38:56.700Z,1003.33
2018-11-20T13:39:56.678Z,1003.31
2018-11-20T13:40:56.807Z,1003.25
2018-11-20T13:41:56.748Z,1003.26
2018-11-20T13:42:56.914Z,1003.28
2018-11-20T13:43:56.808Z,1003.28
2018-11-20T13:44:57.343Z,1003.23
2018-11-20T13:45:56.865Z,1003.25
2018-11-20T13:46:57.013Z,1003.28